Time;durP1;ratioP1;P1;durP2;ratioP2;P2;SDS_P1;SDS_P2;PMS_P1;PMS_P2;Temp;Humidity;BMP_temperature;BMP_pressure;BME280_temperature;BME280_humidity;BME280_pressure;Samples;Min_cycle;Max_cycle;Signal;HPM_P1;HPM_P2
2022/09/17 00:02:15;;;;;;;1.48;1.48;;;12.40;99.90;;;;;;6096019;29;20229;-68
2022/09/17 00:05:22;;;;;;;1.55;1.55;;;12.30;99.90;;;;;;6094016;29;20264;-68
2022/09/17 00:08:27;;;;;;;1.70;1.70;;;12.30;99.90;;;;;;6093503;29;20237;-68
2022/09/17 00:11:38;;;;;;;1.58;1.55;;;12.40;99.90;;;;;;6093966;29;20196;-68
2022/09/17 00:14:42;;;;;;;1.80;1.70;;;12.40;99.90;;;;;;6093611;29;20233;-68
2022/09/17 00:17:46;;;;;;;3.40;3.20;;;12.30;99.90;;;;;;6093494;29;20261;-68
2022/09/17 00:20:52;;;;;;;0.80;0.80;;;12.30;99.90;;;;;;6093691;29;20190;-68
2022/09/17 00:23:58;;;;;;;1.63;0.80;;;12.30;99.90;;;;;;6093455;29;20240;-68
2022/09/17 00:27:02;;;;;;;0.60;0.60;;;12.30;99.90;;;;;;6092893;29;20217;-67
2022/09/17 00:30:09;;;;;;;0.70;0.70;;;12.30;99.90;;;;;;6093262;29;20196;-68
2022/09/17 00:33:18;;;;;;;5.47;0.80;;;12.30;99.90;;;;;;6092991;29;20236;-68
2022/09/17 00:36:25;;;;;;;0.77;0.77;;;12.30;99.90;;;;;;6093592;29;20260;-68
2022/09/17 00:39:29;;;;;;;0.70;0.70;;;12.30;99.90;;;;;;6093227;29;20304;-67
2022/09/17 00:42:33;;;;;;;1.20;0.73;;;12.30;99.90;;;;;;6093284;29;20233;-68
2022/09/17 00:45:37;;;;;;;0.50;0.50;;;12.30;99.90;;;;;;6093180;29;20486;-67
2022/09/17 00:48:44;;;;;;;0.70;0.70;;;12.30;99.90;;;;;;6093091;29;20233;-67
2022/09/17 00:51:56;;;;;;;0.73;0.70;;;12.30;99.90;;;;;;6093042;29;20300;-67
2022/09/17 00:55:11;;;;;;;1.65;0.75;;;12.30;99.90;;;;;;6069804;29;20317;-68
2022/09/17 00:58:18;;;;;;;1.05;0.68;;;12.30;99.90;;;;;;6089215;29;20279;-68
2022/09/17 01:01:22;;;;;;;2.03;0.70;;;12.30;99.90;;;;;;6116768;29;20223;-67
2022/09/17 01:04:27;;;;;;;0.55;0.55;;;12.30;99.90;;;;;;6116471;29;20295;-68
2022/09/17 01:08:01;;;;;;;1.45;0.70;;;12.30;99.90;;;;;;6115973;29;20480;-68
2022/09/17 01:11:35;;;;;;;0.70;0.70;;;12.20;99.90;;;;;;6116768;29;20261;-68
2022/09/17 01:15:00;;;;;;;2.95;0.80;;;12.20;99.90;;;;;;6114779;29;20237;-68
2022/09/17 01:18:21;;;;;;;0.80;0.80;;;12.20;99.90;;;;;;6116273;28;20236;-68
2022/09/17 01:21:51;;;;;;;0.60;0.60;;;12.20;99.90;;;;;;6116521;29;20223;-68
2022/09/17 01:25:23;;;;;;;0.60;0.60;;;12.20;99.90;;;;;;6116073;29;20304;-68
2022/09/17 01:28:36;;;;;;;1.85;0.80;;;12.30;99.90;;;;;;6115894;29;20233;-68
2022/09/17 01:31:44;;;;;;;0.70;0.70;;;12.20;99.90;;;;;;6116484;29;20189;-68
2022/09/17 01:34:58;;;;;;;0.80;0.80;;;12.20;99.90;;;;;;6115822;29;20348;-68
2022/09/17 01:38:09;;;;;;;0.82;0.82;;;12.20;99.90;;;;;;6115866;28;20232;-68
2022/09/17 01:41:24;;;;;;;2.15;0.70;;;12.30;99.90;;;;;;6117631;29;20256;-68
2022/09/17 01:44:35;;;;;;;0.77;0.77;;;12.10;99.90;;;;;;6120099;29;20259;-68
2022/09/17 01:47:45;;;;;;;0.85;0.85;;;12.20;99.90;;;;;;6120120;29;20272;-68
2022/09/17 01:50:54;;;;;;;0.70;0.70;;;12.20;99.90;;;;;;6120420;29;20260;-68
2022/09/17 01:54:05;;;;;;;0.70;0.70;;;12.20;99.90;;;;;;6119434;29;20251;-68
2022/09/17 01:57:17;;;;;;;0.80;0.80;;;12.10;99.90;;;;;;6119759;29;20196;-68
2022/09/17 02:00:21;;;;;;;0.85;0.85;;;12.20;99.90;;;;;;6113624;29;20544;-68
2022/09/17 02:03:30;;;;;;;1.13;0.80;;;12.20;99.90;;;;;;6096127;29;20244;-68
2022/09/17 02:06:38;;;;;;;0.90;0.90;;;12.20;99.90;;;;;;6096197;29;20217;-68
2022/09/17 02:09:46;;;;;;;1.02;0.90;;;12.20;99.90;;;;;;6095937;29;20434;-68
2022/09/17 02:12:55;;;;;;;1.67;0.80;;;12.10;99.90;;;;;;6095659;29;20542;-68
2022/09/17 02:16:06;;;;;;;0.90;0.88;;;12.20;99.90;;;;;;6094899;29;20194;-68
2022/09/17 02:19:15;;;;;;;0.90;0.90;;;12.30;99.90;;;;;;6096024;29;20253;-68
2022/09/17 02:22:25;;;;;;;0.70;0.70;;;12.30;99.90;;;;;;6095529;29;20201;-67
2022/09/17 02:25:36;;;;;;;0.77;0.77;;;12.30;99.90;;;;;;6095255;29;20217;-68
2022/09/17 02:28:46;;;;;;;0.98;0.80;;;12.20;99.90;;;;;;6095530;29;20283;-68
2022/09/17 02:31:50;;;;;;;0.90;0.90;;;12.20;99.90;;;;;;6096005;29;20190;-67
2022/09/17 02:34:56;;;;;;;0.93;0.93;;;12.20;99.90;;;;;;6095435;29;20243;-67
2022/09/17 02:38:01;;;;;;;0.88;0.88;;;12.20;99.90;;;;;;6095209;29;20599;-68
2022/09/17 02:41:13;;;;;;;0.90;0.90;;;12.20;99.90;;;;;;6095438;29;20197;-67
2022/09/17 02:44:27;;;;;;;0.85;0.85;;;12.20;99.90;;;;;;6095358;29;20304;-68
2022/09/17 02:48:00;;;;;;;1.02;0.80;;;12.30;99.90;;;;;;6095250;29;20240;-68
2022/09/17 02:51:24;;;;;;;0.80;0.80;;;12.30;99.90;;;;;;6094638;29;20196;-68
2022/09/17 02:54:32;;;;;;;0.80;0.80;;;12.20;99.90;;;;;;6048672;29;20439;-68
2022/09/17 02:57:41;;;;;;;0.90;0.80;;;12.30;99.90;;;;;;6048830;29;20250;-67
2022/09/17 03:00:45;;;;;;;0.80;0.80;;;12.20;99.90;;;;;;6057854;29;20206;-68
2022/09/17 03:03:50;;;;;;;1.63;0.75;;;12.20;99.90;;;;;;6066954;29;20241;-68
2022/09/17 03:06:58;;;;;;;0.77;0.77;;;12.20;99.90;;;;;;6055459;29;20194;-68
2022/09/17 03:10:02;;;;;;;0.80;0.80;;;12.20;99.90;;;;;;6071401;29;20237;-68
2022/09/17 03:13:06;;;;;;;0.90;0.90;;;12.10;99.90;;;;;;6053227;29;20222;-68
2022/09/17 03:16:11;;;;;;;0.80;0.80;;;12.10;99.90;;;;;;6048435;29;20191;-68
2022/09/17 03:19:16;;;;;;;1.27;0.90;;;12.10;99.90;;;;;;6048076;29;20239;-68
2022/09/17 03:22:21;;;;;;;0.75;0.75;;;12.00;99.90;;;;;;6071418;29;20222;-68
2022/09/17 03:25:25;;;;;;;0.90;0.90;;;12.00;99.90;;;;;;6069876;29;20422;-68
2022/09/17 03:28:32;;;;;;;1.90;0.80;;;12.10;99.90;;;;;;6071188;29;20233;-68
2022/09/17 03:31:37;;;;;;;0.82;0.82;;;12.00;99.90;;;;;;6071544;29;20190;-68
2022/09/17 03:34:41;;;;;;;0.80;0.80;;;12.00;99.90;;;;;;6070493;29;20256;-68
2022/09/17 03:37:47;;;;;;;1.00;1.00;;;12.00;99.90;;;;;;6060663;29;20255;-68
2022/09/17 03:40:58;;;;;;;0.70;0.70;;;12.00;99.90;;;;;;6047710;29;20453;-68
2022/09/17 03:44:03;;;;;;;0.80;0.77;;;12.00;99.90;;;;;;6055876;29;20309;-68
2022/09/17 03:47:09;;;;;;;2.55;0.80;;;11.90;99.90;;;;;;6071198;29;20190;-68
2022/09/17 03:50:13;;;;;;;0.90;0.90;;;12.00;99.90;;;;;;6070751;29;20528;-68
2022/09/17 03:53:19;;;;;;;0.70;0.70;;;11.90;99.90;;;;;;6098832;28;20283;-67
2022/09/17 03:56:23;;;;;;;0.80;0.80;;;12.00;99.90;;;;;;6117769;29;20304;-67
2022/09/17 03:59:28;;;;;;;0.70;0.70;;;11.90;99.90;;;;;;6117160;28;20237;-66
2022/09/17 04:02:33;;;;;;;1.25;0.70;;;12.00;99.90;;;;;;6117520;29;20196;-68
2022/09/17 04:05:37;;;;;;;0.80;0.80;;;12.00;99.90;;;;;;6116531;29;20252;-68
2022/09/17 04:08:43;;;;;;;0.80;0.80;;;12.00;99.90;;;;;;6116768;28;20379;-68
2022/09/17 04:11:47;;;;;;;0.70;0.70;;;12.00;99.90;;;;;;6106900;29;20497;-68
2022/09/17 04:14:52;;;;;;;2.05;0.80;;;12.00;99.90;;;;;;6093152;29;20532;-68
2022/09/17 04:17:57;;;;;;;0.80;0.80;;;11.90;99.90;;;;;;6093834;29;20190;-66
2022/09/17 04:21:02;;;;;;;1.45;0.70;;;11.90;99.90;;;;;;6070400;29;20229;-68
2022/09/17 04:24:08;;;;;;;0.75;0.75;;;12.00;99.90;;;;;;6069821;29;20410;-67
2022/09/17 04:27:12;;;;;;;1.65;0.80;;;11.90;99.90;;;;;;6070276;29;20198;-67
2022/09/17 04:30:17;;;;;;;0.75;0.75;;;11.90;99.90;;;;;;6070067;29;20237;-67
2022/09/17 04:33:22;;;;;;;0.80;0.80;;;11.90;99.90;;;;;;6068380;29;20234;-68
2022/09/17 04:36:26;;;;;;;0.75;0.75;;;11.90;99.90;;;;;;6070397;29;20258;-68
2022/09/17 04:39:31;;;;;;;0.90;0.80;;;12.00;99.90;;;;;;6069692;29;20297;-67
2022/09/17 04:42:36;;;;;;;0.70;0.70;;;12.00;99.90;;;;;;6070558;29;20225;-67
2022/09/17 04:45:40;;;;;;;0.60;0.60;;;12.00;99.90;;;;;;6069957;29;20253;-67
2022/09/17 04:48:44;;;;;;;0.68;0.68;;;12.00;99.90;;;;;;6069586;29;20618;-67
2022/09/17 04:51:48;;;;;;;1.10;0.70;;;11.90;99.90;;;;;;6070046;29;20273;-67
2022/09/17 04:54:54;;;;;;;0.75;0.75;;;11.90;99.90;;;;;;6067879;29;20545;-67
2022/09/17 04:57:58;;;;;;;0.70;0.70;;;12.00;99.90;;;;;;6070201;29;20198;-67
2022/09/17 05:01:02;;;;;;;0.85;0.70;;;12.00;99.90;;;;;;6116696;29;20259;-67
2022/09/17 05:04:07;;;;;;;1.42;0.80;;;12.00;99.90;;;;;;6116162;29;20610;-68
2022/09/17 05:07:11;;;;;;;0.65;0.55;;;12.00;99.90;;;;;;6116850;29;20195;-66
2022/09/17 05:10:21;;;;;;;1.20;0.80;;;12.10;99.90;;;;;;6116078;29;20236;-68
2022/09/17 05:13:25;;;;;;;0.75;0.75;;;12.10;99.90;;;;;;6135494;29;20319;-67
2022/09/17 05:16:30;;;;;;;0.80;0.80;;;12.10;99.90;;;;;;6119918;29;20212;-67
2022/09/17 05:19:34;;;;;;;0.70;0.70;;;12.10;99.90;;;;;;6120373;29;20467;-67
2022/09/17 05:22:43;;;;;;;2.17;0.77;;;12.10;99.90;;;;;;6120686;29;20220;-67
2022/09/17 05:25:49;;;;;;;0.75;0.65;;;12.10;99.90;;;;;;6120653;29;20279;-67
2022/09/17 05:28:53;;;;;;;0.80;0.80;;;12.00;99.90;;;;;;6120385;28;20232;-68
2022/09/17 05:31:58;;;;;;;0.70;0.70;;;12.00;99.90;;;;;;6120911;29;20259;-68
2022/09/17 05:35:02;;;;;;;0.90;0.90;;;12.10;99.90;;;;;;6120101;29;20236;-68
2022/09/17 05:38:11;;;;;;;0.60;0.60;;;12.00;99.90;;;;;;6120504;29;20208;-67
2022/09/17 05:41:16;;;;;;;1.75;0.70;;;12.00;99.90;;;;;;6120689;29;20264;-68
2022/09/17 05:44:21;;;;;;;0.63;0.63;;;12.00;99.90;;;;;;6120101;29;20247;-67
2022/09/17 05:47:25;;;;;;;0.95;0.95;;;12.00;99.90;;;;;;6120431;29;20223;-68
2022/09/17 05:50:30;;;;;;;0.70;0.70;;;12.00;99.90;;;;;;6119892;29;20232;-67
2022/09/17 05:53:35;;;;;;;0.80;0.80;;;12.00;99.90;;;;;;6119529;28;20279;-68
2022/09/17 05:56:40;;;;;;;0.80;0.80;;;12.00;99.90;;;;;;6120371;29;20219;-67
2022/09/17 05:59:44;;;;;;;0.80;0.80;;;12.00;99.90;;;;;;6119432;29;20508;-67
2022/09/17 06:02:55;;;;;;;0.60;0.60;;;12.00;99.90;;;;;;6119895;29;20228;-68
2022/09/17 06:06:00;;;;;;;0.70;0.70;;;12.10;99.90;;;;;;6119222;29;20291;-68
2022/09/17 06:09:04;;;;;;;0.70;0.70;;;12.10;99.90;;;;;;6119239;29;20422;-68
2022/09/17 06:12:11;;;;;;;0.88;0.60;;;12.10;99.90;;;;;;6107270;29;20194;-68
2022/09/17 06:15:15;;;;;;;0.73;0.73;;;12.10;99.90;;;;;;6113417;29;20403;-68
2022/09/17 06:18:20;;;;;;;0.70;0.70;;;12.20;99.90;;;;;;6119235;29;20236;-68
2022/09/17 06:21:25;;;;;;;0.70;0.70;;;12.30;99.90;;;;;;6119180;29;20197;-67
2022/09/17 06:24:29;;;;;;;0.60;0.60;;;12.30;99.90;;;;;;6118943;29;20232;-68
2022/09/17 06:27:35;;;;;;;1.13;0.70;;;12.40;99.90;;;;;;6118404;29;20495;-67
2022/09/17 06:30:39;;;;;;;0.65;0.65;;;12.50;99.90;;;;;;6118967;28;20243;-67
2022/09/17 06:33:43;;;;;;;0.70;0.70;;;12.60;99.90;;;;;;6118813;29;20239;-67
2022/09/17 06:36:49;;;;;;;0.73;0.73;;;12.60;99.90;;;;;;6118837;29;20213;-67
2022/09/17 06:39:53;;;;;;;0.70;0.70;;;12.60;99.90;;;;;;6118815;29;20348;-67
2022/09/17 06:42:59;;;;;;;0.80;0.80;;;12.60;99.90;;;;;;6119200;29;20228;-67
2022/09/17 06:46:07;;;;;;;0.63;0.63;;;12.60;99.90;;;;;;6118796;29;20200;-67
2022/09/17 06:49:12;;;;;;;1.23;0.73;;;12.70;99.90;;;;;;6118162;28;20531;-67
2022/09/17 06:52:16;;;;;;;0.65;0.65;;;12.80;99.90;;;;;;6118736;29;20292;-67
2022/09/17 06:55:21;;;;;;;0.60;0.60;;;12.80;99.90;;;;;;6118147;28;20526;-67
2022/09/17 06:58:26;;;;;;;0.80;0.80;;;12.80;99.90;;;;;;6118378;28;20239;-67
2022/09/17 07:01:31;;;;;;;1.75;0.70;;;13.00;99.90;;;;;;6118771;29;20189;-67
2022/09/17 07:04:36;;;;;;;0.50;0.50;;;13.00;99.90;;;;;;6118382;29;20236;-69
2022/09/17 07:07:40;;;;;;;0.80;0.80;;;13.00;99.90;;;;;;6118370;29;20208;-68
2022/09/17 07:10:44;;;;;;;0.70;0.70;;;13.00;99.90;;;;;;6116332;28;20296;-68
2022/09/17 07:13:50;;;;;;;5.28;0.80;;;13.10;99.90;;;;;;6094113;29;20449;-67
2022/09/17 07:16:54;;;;;;;1.45;0.80;;;13.10;99.90;;;;;;6094977;29;20218;-67
2022/09/17 07:19:58;;;;;;;1.55;0.70;;;13.00;99.90;;;;;;6093839;29;20507;-68
2022/09/17 07:23:02;;;;;;;0.68;0.68;;;13.20;99.90;;;;;;6094401;29;20224;-68
2022/09/17 07:26:10;;;;;;;1.00;0.73;;;13.30;99.90;;;;;;6094787;29;20201;-68
2022/09/17 07:29:15;;;;;;;0.80;0.80;;;13.30;99.90;;;;;;6093174;29;20233;-68
2022/09/17 07:32:20;;;;;;;1.35;0.70;;;13.40;99.90;;;;;;6094697;29;20217;-68
2022/09/17 07:35:24;;;;;;;1.75;0.80;;;13.20;99.90;;;;;;6093806;29;20263;-69
2022/09/17 07:38:29;;;;;;;0.70;0.70;;;13.30;99.90;;;;;;6093613;29;20310;-69
2022/09/17 07:41:34;;;;;;;0.60;0.60;;;13.30;99.90;;;;;;6094132;29;20543;-70
2022/09/17 07:44:39;;;;;;;0.70;0.70;;;13.40;99.90;;;;;;6093593;29;20308;-69
2022/09/17 07:47:44;;;;;;;0.80;0.80;;;13.40;99.90;;;;;;6093315;29;20213;-68
2022/09/17 07:50:48;;;;;;;2.20;0.75;;;13.50;99.90;;;;;;6093985;29;20251;-68
2022/09/17 07:53:53;;;;;;;0.75;0.75;;;13.40;99.90;;;;;;6092977;29;20233;-68
2022/09/17 07:56:57;;;;;;;0.95;0.80;;;13.40;99.90;;;;;;6094049;29;20281;-68
2022/09/17 08:00:04;;;;;;;0.70;0.70;;;13.50;99.90;;;;;;6093425;29;20567;-68
2022/09/17 08:03:14;;;;;;;1.65;0.75;;;13.60;99.90;;;;;;6093610;29;20189;-69
2022/09/17 08:06:21;;;;;;;0.60;0.60;;;13.70;99.90;;;;;;6094058;29;20194;-69
2022/09/17 08:09:26;;;;;;;2.35;0.80;;;13.70;99.90;;;;;;6093559;29;20232;-68
2022/09/17 08:12:31;;;;;;;2.05;0.88;;;13.80;99.90;;;;;;6109129;29;20475;-68
2022/09/17 08:15:36;;;;;;;0.70;0.70;;;13.80;99.90;;;;;;6116675;29;20236;-68
2022/09/17 08:18:42;;;;;;;1.38;0.80;;;13.80;99.90;;;;;;6116178;29;20511;-69
2022/09/17 08:21:46;;;;;;;1.00;1.00;;;13.70;99.90;;;;;;6116715;29;20264;-68
2022/09/17 08:24:50;;;;;;;0.90;0.90;;;13.80;99.90;;;;;;6116235;29;20251;-67
2022/09/17 08:27:55;;;;;;;0.80;0.80;;;13.90;99.90;;;;;;6117021;29;20193;-67
2022/09/17 08:31:03;;;;;;;0.82;0.82;;;13.80;99.90;;;;;;6116660;28;20256;-67
2022/09/17 08:34:09;;;;;;;0.85;0.82;;;13.70;99.90;;;;;;6116278;29;20433;-67
2022/09/17 08:37:13;;;;;;;0.70;0.70;;;13.80;99.90;;;;;;6117045;29;20217;-68
2022/09/17 08:40:21;;;;;;;1.35;0.70;;;13.90;99.90;;;;;;6116486;28;20232;-67
2022/09/17 08:43:26;;;;;;;0.70;0.70;;;13.80;99.90;;;;;;6116122;28;20435;-69
2022/09/17 08:46:43;;;;;;;0.82;0.82;;;14.00;99.90;;;;;;6116958;29;20193;-68
2022/09/17 08:49:51;;;;;;;0.70;0.70;;;14.10;99.90;;;;;;6117539;29;20240;-68
2022/09/17 08:53:23;;;;;;;1.50;0.70;;;14.20;99.90;;;;;;6121331;29;20255;-67
2022/09/17 08:56:28;;;;;;;0.70;0.70;;;14.10;99.90;;;;;;6121071;29;20597;-68
2022/09/17 08:59:38;;;;;;;2.42;0.85;;;14.10;99.90;;;;;;6120761;29;20256;-68
2022/09/17 09:03:00;;;;;;;0.88;0.73;;;14.20;99.90;;;;;;6120844;29;20452;-69
2022/09/17 09:06:05;;;;;;;0.70;0.70;;;14.30;99.90;;;;;;6121354;29;20220;-68
2022/09/17 09:09:17;;;;;;;2.15;0.98;;;14.30;99.90;;;;;;6120645;28;20248;-68
2022/09/17 09:12:26;;;;;;;0.82;0.82;;;14.20;99.90;;;;;;6106739;29;20194;-68
2022/09/17 09:15:37;;;;;;;0.85;0.85;;;14.20;99.90;;;;;;6097213;29;20233;-69
2022/09/17 09:18:44;;;;;;;1.10;1.10;;;14.20;99.90;;;;;;6097009;29;20325;-69
2022/09/17 09:22:02;;;;;;;3.13;1.30;;;14.20;99.90;;;;;;6097136;29;20422;-69
2022/09/17 09:25:21;;;;;;;0.90;0.90;;;14.30;99.90;;;;;;6097041;29;20239;-68
2022/09/17 09:28:41;;;;;;;1.33;1.15;;;14.40;99.90;;;;;;6096690;29;20236;-68
2022/09/17 09:32:03;;;;;;;0.85;0.85;;;14.40;99.90;;;;;;6096989;29;20190;-68
2022/09/17 09:35:22;;;;;;;1.13;1.00;;;14.60;99.90;;;;;;6096869;29;20233;-68
2022/09/17 09:38:33;;;;;;;1.70;1.70;;;14.70;99.90;;;;;;6096531;29;20248;-68
2022/09/17 09:41:43;;;;;;;1.42;1.42;;;14.70;99.90;;;;;;6096805;29;20451;-68
2022/09/17 09:44:47;;;;;;;1.60;1.60;;;14.70;99.90;;;;;;6096437;29;20649;-69
2022/09/17 09:47:58;;;;;;;2.38;2.38;;;14.60;99.90;;;;;;6097080;29;20269;-68
2022/09/17 09:51:19;;;;;;;1.83;1.83;;;14.70;99.90;;;;;;6119841;29;20228;-68
2022/09/17 09:54:42;;;;;;;2.00;1.90;;;14.70;99.90;;;;;;6119685;29;20304;-68
2022/09/17 09:57:47;;;;;;;1.58;1.58;;;14.60;99.90;;;;;;6120098;29;20216;-68
2022/09/17 10:00:51;;;;;;;2.05;1.38;;;14.60;99.90;;;;;;6118547;29;20317;-68
2022/09/17 10:03:57;;;;;;;0.90;0.90;;;14.60;99.90;;;;;;6119166;29;20236;-68
2022/09/17 10:07:06;;;;;;;0.90;0.90;;;14.60;99.90;;;;;;6119523;29;20483;-68
2022/09/17 10:10:11;;;;;;;1.00;1.00;;;14.70;99.90;;;;;;6119237;29;20252;-67
2022/09/17 10:13:16;;;;;;;1.10;1.10;;;14.70;99.90;;;;;;6138538;29;20491;-67
2022/09/17 10:16:23;;;;;;;0.90;0.90;;;14.70;99.90;;;;;;6119257;29;20189;-68
2022/09/17 10:19:28;;;;;;;0.90;0.85;;;14.70;99.90;;;;;;6119201;29;20232;-68
2022/09/17 10:22:35;;;;;;;1.00;1.00;;;14.70;99.90;;;;;;6119671;29;20252;-68
2022/09/17 10:25:43;;;;;;;0.82;0.82;;;14.80;99.90;;;;;;6119038;29;20538;-68
2022/09/17 10:28:50;;;;;;;0.90;0.90;;;14.80;99.90;;;;;;6119073;28;20243;-67
2022/09/17 10:31:56;;;;;;;0.90;0.90;;;14.90;99.90;;;;;;6118986;29;20527;-67
2022/09/17 10:35:04;;;;;;;0.75;0.75;;;14.80;99.90;;;;;;6118474;28;20576;-67
2022/09/17 10:38:32;;;;;;;2.78;1.02;;;14.80;99.90;;;;;;6118347;28;20531;-67
2022/09/17 10:41:36;;;;;;;2.92;1.02;;;14.70;99.90;;;;;;6119214;29;20189;-67
2022/09/17 10:44:52;;;;;;;1.00;1.00;;;14.80;99.90;;;;;;6118759;29;20303;-68
2022/09/17 10:47:58;;;;;;;0.90;0.90;;;15.10;99.90;;;;;;6118689;29;20480;-68
2022/09/17 10:51:05;;;;;;;1.08;1.08;;;15.10;99.90;;;;;;6142205;29;20244;-69
2022/09/17 10:54:48;;;;;;;4.05;1.20;;;15.10;99.90;;;;;;6141605;28;20534;-68
2022/09/17 10:58:04;;;;;;;1.10;1.10;;;15.10;99.90;;;;;;6141978;29;20283;-67
2022/09/17 11:01:22;;;;;;;0.90;0.90;;;15.00;99.90;;;;;;6141995;29;20283;-67
2022/09/17 11:04:39;;;;;;;1.10;1.10;;;14.90;99.90;;;;;;6141759;29;20247;-67
2022/09/17 11:07:45;;;;;;;1.30;1.30;;;14.70;99.90;;;;;;6141919;29;20214;-67
2022/09/17 11:11:00;;;;;;;1.40;1.40;;;14.70;99.90;;;;;;6138991;29;20263;-67
2022/09/17 11:14:18;;;;;;;1.08;1.08;;;14.70;99.90;;;;;;6117739;28;20240;-68
2022/09/17 11:17:58;;;;;;;1.67;1.00;;;14.80;99.90;;;;;;6118148;29;20287;-68
2022/09/17 11:21:36;;;;;;;1.60;1.60;;;14.90;99.90;;;;;;6088594;29;20237;-67
2022/09/17 11:25:07;;;;;;;2.08;1.80;;;14.80;99.90;;;;;;6093952;29;20595;-68
2022/09/17 11:28:37;;;;;;;1.13;1.10;;;15.00;99.90;;;;;;6094244;29;20194;-68
2022/09/17 11:31:58;;;;;;;0.90;0.90;;;15.10;99.90;;;;;;6094633;29;20413;-67
2022/09/17 11:35:07;;;;;;;1.00;1.00;;;15.00;99.90;;;;;;6094109;29;20233;-68
2022/09/17 11:38:16;;;;;;;0.82;0.82;;;15.00;99.90;;;;;;6093500;29;20288;-68
2022/09/17 11:41:23;;;;;;;0.63;0.63;;;14.80;99.90;;;;;;6094145;29;20197;-68
2022/09/17 11:44:33;;;;;;;0.82;0.82;;;14.80;99.90;;;;;;6093920;29;20240;-67
2022/09/17 11:47:42;;;;;;;0.98;0.98;;;14.70;99.90;;;;;;6094190;29;20193;-68
2022/09/17 11:50:51;;;;;;;2.58;0.90;;;14.90;99.90;;;;;;6093840;29;20243;-68
2022/09/17 11:54:01;;;;;;;0.95;0.95;;;14.90;99.90;;;;;;6093574;29;20253;-67
2022/09/17 11:57:11;;;;;;;1.88;1.88;;;15.00;99.90;;;;;;6094061;29;20189;-67
2022/09/17 12:00:21;;;;;;;1.33;1.33;;;15.00;99.90;;;;;;6093421;29;20264;-67
2022/09/17 12:03:30;;;;;;;1.52;1.10;;;15.00;99.90;;;;;;6093173;29;20524;-67
2022/09/17 12:06:40;;;;;;;1.10;1.10;;;15.00;99.90;;;;;;6093542;29;20213;-67
2022/09/17 12:09:48;;;;;;;0.90;0.90;;;15.10;99.90;;;;;;6091952;29;20237;-67
2022/09/17 12:12:58;;;;;;;0.90;0.90;;;15.20;99.90;;;;;;6074898;29;20506;-67
2022/09/17 12:16:13;;;;;;;0.98;0.98;;;15.10;99.90;;;;;;6116959;29;20248;-67
2022/09/17 12:19:24;;;;;;;0.70;0.70;;;15.20;99.90;;;;;;6116561;29;20388;-67
2022/09/17 12:22:32;;;;;;;1.85;0.75;;;15.10;99.90;;;;;;6117091;29;20219;-67
2022/09/17 12:25:57;;;;;;;0.75;0.75;;;15.20;99.90;;;;;;6116041;29;20323;-68
2022/09/17 12:29:06;;;;;;;0.73;0.73;;;15.30;99.90;;;;;;6116517;29;20236;-67
2022/09/17 12:32:39;;;;;;;0.70;0.70;;;15.40;99.90;;;;;;6116651;29;20316;-67
2022/09/17 12:36:12;;;;;;;0.90;0.90;;;15.50;99.90;;;;;;6116649;29;20244;-67
2022/09/17 12:40:00;;;;;;;0.65;0.65;;;15.50;99.90;;;;;;6116063;29;20476;-67
2022/09/17 12:43:27;;;;;;;1.20;1.20;;;15.60;99.90;;;;;;6113081;29;20376;-68
2022/09/17 12:46:50;;;;;;;1.70;1.70;;;15.50;99.90;;;;;;6116848;29;20196;-67
2022/09/17 12:50:11;;;;;;;1.00;1.00;;;15.50;99.90;;;;;;6115869;29;20412;-67
2022/09/17 12:53:23;;;;;;;0.93;0.93;;;15.50;99.90;;;;;;6115769;29;20248;-67
2022/09/17 12:56:42;;;;;;;0.75;0.75;;;15.50;99.90;;;;;;6116631;29;20197;-67
2022/09/17 12:59:52;;;;;;;0.80;0.80;;;15.50;99.90;;;;;;6116254;29;20236;-68
2022/09/17 13:03:03;;;;;;;0.80;0.80;;;15.40;99.90;;;;;;6116555;29;20189;-67
2022/09/17 13:06:54;;;;;;;0.60;0.60;;;15.20;99.90;;;;;;6116308;29;20208;-68
2022/09/17 13:10:26;;;;;;;1.00;1.00;;;15.00;99.90;;;;;;6115328;29;20307;-67
2022/09/17 13:13:37;;;;;;;0.70;0.70;;;14.60;99.90;;;;;;6088548;29;20486;-69
2022/09/17 13:16:45;;;;;;;0.80;0.80;;;14.70;99.90;;;;;;6069934;29;20319;-69
2022/09/17 13:19:58;;;;;;;2.25;0.80;;;14.60;99.90;;;;;;6069194;29;20476;-69
2022/09/17 13:23:04;;;;;;;2.50;1.00;;;14.80;99.90;;;;;;6069433;29;20191;-68
2022/09/17 13:26:12;;;;;;;8.00;7.30;;;14.80;99.90;;;;;;6069366;29;20238;-69
2022/09/17 13:30:01;;;;;;;2.10;2.10;;;14.70;99.90;;;;;;6069077;29;20435;-69
2022/09/17 13:33:05;;;;;;;1.45;1.23;;;14.40;99.90;;;;;;6038016;29;20213;-70
2022/09/17 13:36:53;;;;;;;1.42;1.42;;;14.60;99.90;;;;;;6071097;29;20230;-69
2022/09/17 13:39:59;;;;;;;1.00;1.00;;;14.60;99.90;;;;;;6045174;29;20245;-69
2022/09/17 13:43:08;;;;;;;1.45;0.93;;;14.90;99.90;;;;;;6073414;29;20257;-69
2022/09/17 13:46:16;;;;;;;0.88;0.88;;;15.00;99.90;;;;;;6073469;29;20213;-69
2022/09/17 13:49:21;;;;;;;0.95;0.95;;;15.10;99.90;;;;;;6073375;29;20335;-69
2022/09/17 13:52:41;;;;;;;0.90;0.90;;;15.00;99.90;;;;;;6073712;29;20305;-69
2022/09/17 13:55:50;;;;;;;1.75;0.95;;;14.90;99.90;;;;;;6072818;29;20241;-68
2022/09/17 13:58:55;;;;;;;0.82;0.80;;;14.90;99.90;;;;;;6072983;29;20237;-67
2022/09/17 14:02:32;;;;;;;1.00;1.00;;;14.90;99.90;;;;;;6073546;29;20190;-68
2022/09/17 14:05:36;;;;;;;1.23;1.23;;;15.00;99.90;;;;;;6072684;29;20341;-69
2022/09/17 14:08:53;;;;;;;1.55;1.00;;;14.90;99.90;;;;;;6072653;29;20327;-68
2022/09/17 14:11:59;;;;;;;1.00;1.00;;;15.00;99.90;;;;;;6095915;29;20200;-68
2022/09/17 14:15:03;;;;;;;1.67;1.67;;;15.00;99.90;;;;;;6119253;29;20280;-68
2022/09/17 14:18:37;;;;;;;1.35;1.35;;;14.80;99.90;;;;;;6119349;29;20425;-68
2022/09/17 14:21:45;;;;;;;0.90;0.90;;;14.80;99.90;;;;;;6119353;29;20211;-69
2022/09/17 14:24:52;;;;;;;1.65;1.00;;;14.70;99.90;;;;;;6119193;29;20232;-69
2022/09/17 14:27:58;;;;;;;0.95;0.95;;;14.70;99.90;;;;;;6118596;29;20211;-69
2022/09/17 14:31:03;;;;;;;0.98;0.98;;;14.70;99.90;;;;;;6119372;29;20221;-68
2022/09/17 14:34:17;;;;;;;0.80;0.80;;;14.70;99.90;;;;;;6126107;29;20391;-68
2022/09/17 14:37:22;;;;;;;0.90;0.90;;;14.60;99.90;;;;;;6142590;29;20212;-68
2022/09/17 14:40:27;;;;;;;1.10;1.10;;;14.50;99.90;;;;;;6123340;29;20240;-68
2022/09/17 14:43:41;;;;;;;1.92;1.33;;;14.40;99.90;;;;;;6118934;29;20304;-67
2022/09/17 14:46:51;;;;;;;1.48;1.38;;;14.40;99.90;;;;;;6119093;29;20229;-68
2022/09/17 14:50:10;;;;;;;1.10;1.10;;;14.40;99.90;;;;;;6118617;28;20236;-68
2022/09/17 14:53:18;;;;;;;1.48;1.38;;;14.50;99.90;;;;;;6118691;28;20241;-68
2022/09/17 14:56:23;;;;;;;1.00;1.00;;;14.50;99.90;;;;;;6118963;29;20239;-68
2022/09/17 14:59:49;;;;;;;1.10;1.10;;;14.30;99.90;;;;;;6118320;28;20274;-68
2022/09/17 15:02:58;;;;;;;0.90;0.90;;;14.20;99.90;;;;;;6118705;29;20334;-68
2022/09/17 15:06:02;;;;;;;1.10;1.10;;;14.10;99.90;;;;;;6141941;29;20498;-68
2022/09/17 15:09:15;;;;;;;3.30;3.10;;;14.10;99.90;;;;;;6132882;28;20236;-68
2022/09/17 15:12:23;;;;;;;1.77;1.60;;;14.20;99.90;;;;;;6104215;29;20194;-68
2022/09/17 15:15:29;;;;;;;1.10;1.10;;;14.20;99.90;;;;;;6094609;29;20304;-68
2022/09/17 15:18:38;;;;;;;1.30;1.30;;;14.20;99.90;;;;;;6094454;29;20233;-68
2022/09/17 15:21:45;;;;;;;1.13;1.13;;;14.20;99.90;;;;;;6094893;29;20194;-68
2022/09/17 15:24:53;;;;;;;1.33;1.30;;;14.20;99.90;;;;;;6094248;29;20233;-67
2022/09/17 15:28:00;;;;;;;1.33;1.33;;;14.20;99.90;;;;;;6094437;29;20310;-68
2022/09/17 15:31:07;;;;;;;1.50;1.50;;;14.10;99.90;;;;;;6325165;23;20236;-69
2022/09/17 15:34:12;;;;;;;1.08;1.08;;;14.10;99.90;;;;;;6143452;28;20227;-69
2022/09/17 15:37:19;;;;;;;1.17;1.10;;;14.10;99.90;;;;;;6141442;29;20188;-69
2022/09/17 15:40:28;;;;;;;1.40;1.40;;;14.20;99.90;;;;;;6159317;29;20576;-68
2022/09/17 15:43:34;;;;;;;1.20;1.20;;;14.10;99.90;;;;;;6160629;28;20231;-69
2022/09/17 15:46:39;;;;;;;1.30;1.30;;;14.20;99.90;;;;;;6141249;29;20188;-69
2022/09/17 15:50:13;;;;;;;1.27;1.27;;;14.20;99.90;;;;;;6117319;29;20236;-69
2022/09/17 15:53:23;;;;;;;1.10;1.10;;;14.10;99.90;;;;;;6119097;29;20468;-69
2022/09/17 15:56:29;;;;;;;1.13;1.13;;;14.00;99.90;;;;;;6140882;29;20192;-69
2022/09/17 15:59:35;;;;;;;1.95;1.40;;;14.10;99.90;;;;;;6139677;28;20239;-69
2022/09/17 16:02:40;;;;;;;1.30;1.30;;;14.20;99.90;;;;;;6141182;29;20255;-68
2022/09/17 16:05:46;;;;;;;1.55;1.50;;;14.10;99.90;;;;;;6156968;29;20246;-69
2022/09/17 16:08:55;;;;;;;1.40;1.40;;;14.10;99.90;;;;;;6164532;28;20305;-69
2022/09/17 16:11:59;;;;;;;1.40;1.40;;;14.00;99.90;;;;;;6164859;29;20255;-69
2022/09/17 16:15:04;;;;;;;1.75;1.75;;;14.10;99.90;;;;;;6164424;28;20302;-68
2022/09/17 16:18:15;;;;;;;1.33;1.33;;;14.10;99.90;;;;;;6164054;28;20187;-68
2022/09/17 16:21:20;;;;;;;1.55;1.55;;;14.10;99.90;;;;;;6163679;29;20216;-68
2022/09/17 16:24:24;;;;;;;1.48;1.48;;;14.20;99.90;;;;;;6164280;28;20242;-68
2022/09/17 16:27:32;;;;;;;1.63;1.52;;;14.20;99.90;;;;;;6164215;28;20518;-68
2022/09/17 16:30:37;;;;;;;1.85;1.38;;;14.20;99.90;;;;;;6163771;28;20419;-68